createdAt,value
2019-02-21T00:00:30.444Z,22.20
2019-02-21T00:03:03.023Z,18.07
2019-02-21T00:05:35.553Z,19.30
2019-02-21T00:08:11.095Z,19.93
2019-02-21T00:10:44.484Z,20.13
2019-02-21T00:13:19.840Z,21.73
2019-02-21T00:15:53.735Z,18.17
2019-02-21T00:18:26.446Z,18.77
2019-02-21T00:21:00.238Z,18.90
2019-02-21T00:23:33.083Z,22.70
2019-02-21T00:26:05.660Z,20.10
2019-02-21T00:28:38.575Z,19.13
2019-02-21T00:31:12.063Z,17.53
2019-02-21T00:33:44.811Z,20.77
2019-02-21T00:36:17.731Z,19.10
2019-02-21T00:38:50.327Z,18.70
2019-02-21T00:41:22.926Z,19.47
2019-02-21T00:43:55.835Z,18.93
2019-02-21T00:46:29.431Z,20.73
2019-02-21T00:49:02.311Z,19.93
2019-02-21T00:51:36.317Z,20.07
2019-02-21T00:54:10.446Z,21.45
2019-02-21T00:56:43.870Z,20.50
2019-02-21T00:59:16.889Z,20.10
2019-02-21T01:01:49.416Z,23.93
2019-02-21T01:04:24.313Z,20.57
2019-02-21T01:06:57.438Z,19.53
2019-02-21T01:09:30.512Z,20.60
2019-02-21T01:12:03.030Z,17.97
2019-02-21T01:14:35.939Z,20.40
2019-02-21T01:17:08.791Z,20.35
2019-02-21T01:19:41.789Z,18.58
2019-02-21T01:22:15.418Z,17.73
2019-02-21T01:24:48.097Z,19.90
2019-02-21T01:27:20.677Z,19.17
2019-02-21T01:29:53.822Z,18.40
2019-02-21T01:32:26.370Z,18.07
2019-02-21T01:34:59.282Z,20.63
2019-02-21T01:37:33.323Z,19.97
2019-02-21T01:40:06.424Z,18.40
2019-02-21T01:42:38.928Z,20.77
2019-02-21T01:45:14.826Z,22.70
2019-02-21T01:47:47.498Z,21.23
2019-02-21T01:50:20.377Z,20.70
2019-02-21T01:52:53.227Z,21.13
2019-02-21T01:55:25.790Z,20.60
2019-02-21T01:57:58.335Z,23.30
2019-02-21T02:00:32.459Z,22.20
2019-02-21T02:03:05.411Z,20.27
2019-02-21T02:05:37.877Z,23.13
2019-02-21T02:08:11.325Z,21.45
2019-02-21T02:10:44.205Z,19.50
2019-02-21T02:13:24.017Z,21.70
2019-02-21T02:15:58.546Z,20.63
2019-02-21T02:18:31.039Z,22.43
2019-02-21T02:21:04.487Z,20.33
2019-02-21T02:23:37.446Z,23.00
2019-02-21T02:26:10.151Z,20.47
2019-02-21T02:28:43.808Z,22.73
2019-02-21T02:31:22.785Z,24.33
2019-02-21T02:33:56.375Z,19.23
2019-02-21T02:36:29.709Z,21.13
2019-02-21T02:39:04.802Z,20.13
2019-02-21T02:41:37.358Z,22.03
2019-02-21T02:44:10.976Z,21.37
2019-02-21T02:46:44.618Z,22.27
2019-02-21T02:49:17.163Z,22.10
2019-02-21T02:51:49.739Z,21.90
2019-02-21T02:54:24.291Z,21.03
2019-02-21T02:56:58.612Z,21.57
2019-02-21T02:59:40.312Z,19.83
2019-02-21T03:02:14.446Z,22.70
2019-02-21T03:04:47.004Z,19.53
2019-02-21T03:07:20.670Z,17.60
2019-02-21T03:09:56.868Z,18.67
2019-02-21T03:12:30.507Z,21.63
2019-02-21T03:15:06.601Z,22.07
2019-02-21T03:17:39.757Z,23.97
2019-02-21T03:20:12.314Z,20.93
2019-02-21T03:22:44.876Z,21.03
2019-02-21T03:25:17.349Z,20.40
2019-02-21T03:27:51.443Z,17.80
2019-02-21T03:30:24.044Z,23.50
2019-02-21T03:32:56.525Z,19.60
2019-02-21T03:35:30.669Z,22.93
2019-02-21T03:38:03.219Z,21.70
2019-02-21T03:40:35.924Z,22.53
2019-02-21T03:43:08.768Z,20.57
2019-02-21T03:45:41.484Z,20.87
2019-02-21T03:48:16.378Z,20.43
2019-02-21T03:50:49.338Z,20.70
2019-02-21T03:53:28.556Z,21.63
2019-02-21T03:56:01.071Z,22.37
2019-02-21T03:58:34.389Z,21.13
2019-02-21T04:01:07.125Z,25.07
2019-02-21T04:03:40.699Z,22.00
2019-02-21T04:06:13.272Z,19.35
2019-02-21T04:08:45.986Z,20.30
2019-02-21T04:11:21.134Z,18.90
2019-02-21T04:13:55.713Z,21.60
2019-02-21T04:16:28.285Z,20.57
2019-02-21T04:19:00.868Z,20.20
2019-02-21T04:21:33.864Z,20.70
2019-02-21T04:24:06.605Z,20.07
2019-02-21T04:26:39.251Z,19.17
2019-02-21T04:29:12.138Z,21.17
2019-02-21T04:31:44.668Z,19.07
2019-02-21T04:34:17.693Z,23.10
2019-02-21T04:36:51.545Z,19.70
2019-02-21T04:39:25.376Z,22.43
2019-02-21T04:41:58.143Z,25.03
2019-02-21T04:44:30.774Z,22.67
2019-02-21T04:47:03.230Z,23.70
2019-02-21T04:49:37.549Z,23.40
2019-02-21T04:52:10.044Z,26.27
2019-02-21T04:54:42.840Z,23.60
2019-02-21T04:57:16.211Z,23.70
2019-02-21T04:59:50.211Z,25.30
2019-02-21T05:02:29.211Z,25.73
2019-02-21T05:05:03.157Z,28.33
2019-02-21T05:07:37.377Z,23.62
2019-02-21T05:10:10.291Z,23.60
2019-02-21T05:12:45.025Z,27.57
2019-02-21T05:15:16.798Z,25.83
2019-02-21T05:17:49.776Z,22.87
2019-02-21T05:20:22.186Z,27.77
2019-02-21T05:22:55.174Z,31.17
2019-02-21T05:25:28.139Z,29.07
2019-02-21T05:28:07.131Z,33.57
2019-02-21T05:30:40.452Z,34.03
2019-02-21T05:33:18.574Z,35.60
2019-02-21T05:36:00.410Z,30.67
2019-02-21T05:38:44.242Z,33.03
2019-02-21T05:41:22.522Z,31.93
2019-02-21T05:44:11.686Z,31.48
2019-02-21T05:47:03.830Z,31.33
2019-02-21T05:49:59.365Z,29.95
2019-02-21T05:52:39.686Z,32.57
2019-02-21T05:55:24.535Z,74.95
2019-02-21T05:58:17.592Z,35.33
2019-02-21T06:01:12.319Z,32.42
2019-02-21T06:03:51.439Z,34.90
2019-02-21T06:06:31.988Z,38.60
2019-02-21T06:09:16.441Z,33.20
2019-02-21T06:11:56.806Z,35.23
2019-02-21T06:14:46.418Z,33.47
2019-02-21T06:17:40.663Z,34.47
2019-02-21T06:20:46.620Z,35.88
2019-02-21T06:23:36.164Z,41.67
2019-02-21T06:26:17.551Z,36.92
2019-02-21T06:29:10.437Z,34.07
2019-02-21T06:31:58.492Z,30.62
2019-02-21T06:34:31.750Z,33.33
2019-02-21T06:37:04.959Z,42.13
2019-02-21T06:39:39.283Z,47.23
2019-02-21T06:42:11.959Z,47.67
2019-02-21T06:44:44.721Z,36.57
2019-02-21T06:47:17.325Z,35.53
2019-02-21T06:49:49.874Z,38.53
2019-02-21T06:52:23.106Z,44.23
2019-02-21T06:54:55.567Z,59.50
2019-02-21T06:57:28.523Z,57.77
2019-02-21T07:00:05.354Z,58.50
2019-02-21T07:02:38.048Z,54.92
2019-02-21T07:05:10.663Z,56.70
2019-02-21T07:07:47.506Z,52.13
2019-02-21T07:10:19.907Z,49.10
2019-02-21T07:12:54.722Z,49.17
2019-02-21T07:15:30.669Z,44.23
2019-02-21T07:18:06.648Z,43.47
2019-02-21T07:20:41.621Z,44.77
2019-02-21T07:23:15.114Z,44.07
2019-02-21T07:25:59.158Z,43.17
2019-02-21T07:28:31.941Z,44.13
2019-02-21T07:31:04.428Z,37.57
2019-02-21T07:33:37.854Z,39.07
2019-02-21T07:36:11.218Z,42.10
2019-02-21T07:38:44.156Z,38.00
2019-02-21T07:41:18.639Z,40.37
2019-02-21T07:43:52.278Z,36.05
2019-02-21T07:46:28.003Z,37.70
2019-02-21T07:49:02.135Z,38.97
2019-02-21T07:51:35.977Z,35.13
2019-02-21T07:54:09.713Z,35.43
2019-02-21T07:56:44.165Z,35.87
2019-02-21T07:59:16.726Z,35.80
2019-02-21T08:01:49.170Z,36.90
2019-02-21T08:04:24.655Z,32.40
2019-02-21T08:06:57.154Z,34.10
2019-02-21T08:09:32.595Z,37.10
2019-02-21T08:12:06.500Z,34.33
2019-02-21T08:14:43.255Z,32.67
2019-02-21T08:17:17.797Z,33.53
2019-02-21T08:19:52.862Z,33.53
2019-02-21T08:22:25.988Z,31.73
2019-02-21T08:24:58.504Z,31.73
2019-02-21T08:27:31.347Z,31.40
2019-02-21T08:30:09.667Z,34.83
2019-02-21T08:32:48.251Z,36.70
2019-02-21T08:35:20.875Z,35.40
2019-02-21T08:37:54.943Z,34.50
2019-02-21T08:40:28.957Z,35.37
2019-02-21T08:43:08.551Z,31.17
2019-02-21T08:45:41.844Z,31.87
2019-02-21T08:48:14.488Z,33.90
2019-02-21T08:50:50.665Z,30.40
2019-02-21T08:53:28.174Z,30.10
2019-02-21T08:56:04.537Z,30.40
2019-02-21T08:58:37.467Z,31.40
2019-02-21T09:01:11.282Z,30.77
2019-02-21T09:03:44.001Z,30.30
2019-02-21T09:06:19.051Z,33.07
2019-02-21T09:08:52.971Z,33.43
2019-02-21T09:11:25.607Z,36.33
2019-02-21T09:13:59.647Z,33.80
2019-02-21T09:16:33.639Z,34.60
2019-02-21T09:19:06.181Z,32.00
2019-02-21T09:21:41.079Z,35.47
2019-02-21T09:24:26.814Z,35.23
2019-02-21T09:27:09.143Z,32.73
2019-02-21T09:29:42.398Z,31.15
2019-02-21T09:32:16.096Z,36.33
2019-02-21T09:34:50.345Z,30.53
2019-02-21T09:37:27.761Z,28.50
2019-02-21T09:40:01.587Z,31.33
2019-02-21T09:42:36.330Z,32.97
2019-02-21T09:45:15.786Z,31.27
2019-02-21T09:47:49.226Z,34.93
2019-02-21T09:50:21.751Z,30.40
2019-02-21T09:52:57.848Z,30.67
2019-02-21T09:55:30.535Z,29.67
2019-02-21T09:58:03.124Z,28.23
2019-02-21T10:00:37.568Z,33.90
2019-02-21T10:03:10.994Z,30.87
2019-02-21T10:05:43.571Z,32.93
2019-02-21T10:08:16.969Z,31.70
2019-02-21T10:10:52.776Z,34.30
2019-02-21T10:13:28.618Z,31.47
2019-02-21T10:16:05.053Z,35.60
2019-02-21T10:18:38.332Z,39.07
2019-02-21T10:21:10.875Z,30.80
2019-02-21T10:23:46.562Z,32.73
2019-02-21T10:26:19.192Z,33.10
2019-02-21T10:28:53.364Z,34.00
2019-02-21T10:31:26.723Z,33.23
2019-02-21T10:34:06.702Z,34.43
2019-02-21T10:36:42.342Z,37.63
2019-02-21T10:39:17.165Z,37.00
2019-02-21T10:41:51.498Z,36.80
2019-02-21T10:44:24.153Z,36.90
2019-02-21T10:46:58.011Z,33.03
2019-02-21T10:49:31.309Z,39.13
2019-02-21T10:52:03.913Z,35.03
2019-02-21T10:54:48.257Z,37.93
2019-02-21T10:57:20.782Z,36.17
2019-02-21T10:59:53.379Z,36.20
2019-02-21T11:02:27.811Z,39.27
2019-02-21T11:05:01.953Z,37.73
2019-02-21T11:07:35.210Z,36.07
2019-02-21T11:10:09.599Z,38.03
2019-02-21T11:12:42.901Z,36.03
2019-02-21T11:15:17.422Z,37.53
2019-02-21T11:17:51.540Z,35.05
2019-02-21T11:20:24.438Z,37.73
2019-02-21T11:22:57.112Z,37.73
2019-02-21T11:25:32.581Z,36.97
2019-02-21T11:28:08.716Z,37.13
2019-02-21T11:30:52.283Z,35.23
2019-02-21T11:33:26.952Z,35.50
2019-02-21T11:36:00.446Z,38.73
2019-02-21T11:38:34.440Z,33.60
2019-02-21T11:41:08.270Z,36.83
2019-02-21T11:43:41.605Z,39.70
2019-02-21T11:46:14.844Z,37.80
2019-02-21T11:48:47.825Z,36.87
2019-02-21T11:51:20.359Z,32.53
2019-02-21T11:53:54.351Z,34.85
2019-02-21T11:56:28.744Z,34.80
2019-02-21T11:59:03.868Z,34.13
2019-02-21T12:01:39.638Z,32.58
2019-02-21T12:04:16.145Z,31.23
2019-02-21T12:06:48.841Z,34.20
2019-02-21T12:09:21.851Z,31.13
2019-02-21T12:11:57.030Z,29.13
2019-02-21T12:14:31.771Z,32.87
2019-02-21T12:17:06.266Z,24.80
2019-02-21T12:19:42.653Z,25.90
2019-02-21T12:22:19.038Z,24.50
2019-02-21T12:24:54.163Z,28.55
2019-02-21T12:27:27.886Z,22.60
2019-02-21T12:30:00.612Z,25.13
2019-02-21T12:32:35.126Z,27.70
2019-02-21T12:35:12.551Z,25.87
2019-02-21T12:37:45.387Z,22.30
2019-02-21T12:40:18.799Z,25.10
2019-02-21T12:42:53.829Z,22.43
2019-02-21T12:45:29.864Z,22.95
2019-02-21T12:48:04.395Z,22.47
2019-02-21T12:50:44.288Z,23.70
2019-02-21T12:53:21.693Z,22.03
2019-02-21T12:56:11.054Z,22.73
2019-02-21T12:58:46.679Z,21.05
2019-02-21T13:01:19.203Z,22.60
2019-02-21T13:03:52.229Z,17.93
2019-02-21T13:06:26.580Z,24.90
2019-02-21T13:09:00.231Z,21.50
2019-02-21T13:11:35.545Z,17.17
2019-02-21T13:14:11.542Z,17.47
2019-02-21T13:16:46.670Z,19.13
2019-02-21T13:19:21.589Z,18.13
2019-02-21T13:21:57.422Z,22.67
2019-02-21T13:24:30.638Z,18.20
2019-02-21T13:27:06.950Z,19.67
2019-02-21T13:29:41.750Z,17.60
2019-02-21T13:32:16.824Z,16.27
2019-02-21T13:34:50.469Z,16.90
2019-02-21T13:37:29.095Z,19.60
2019-02-21T13:40:05.852Z,21.70
2019-02-21T13:42:40.650Z,17.60
2019-02-21T13:45:17.809Z,17.73
2019-02-21T13:47:52.823Z,18.67
2019-02-21T13:50:31.161Z,19.60
2019-02-21T13:53:03.931Z,18.92
2019-02-21T13:55:39.111Z,17.80
2019-02-21T13:58:12.716Z,18.13
2019-02-21T14:00:46.166Z,16.57
2019-02-21T14:03:19.289Z,19.67
2019-02-21T14:06:02.997Z,16.17
2019-02-21T14:08:37.302Z,18.20
2019-02-21T14:11:10.537Z,15.93
2019-02-21T14:13:43.009Z,14.23
2019-02-21T14:16:18.181Z,10.60
2019-02-21T14:18:51.550Z,11.87
2019-02-21T14:21:25.588Z,12.13
2019-02-21T14:24:00.112Z,13.03
2019-02-21T14:26:33.020Z,15.70
2019-02-21T14:29:06.631Z,14.63
2019-02-21T14:31:39.279Z,14.63
2019-02-21T14:34:12.681Z,15.63
2019-02-21T14:36:47.237Z,14.73
2019-02-21T14:39:20.880Z,16.17
2019-02-21T14:41:54.601Z,15.63
2019-02-21T14:44:27.321Z,17.57
2019-02-21T14:47:00.583Z,19.10
2019-02-21T14:49:34.124Z,19.03
2019-02-21T14:52:09.761Z,22.07
2019-02-21T14:54:49.935Z,20.87
2019-02-21T14:57:23.596Z,18.30
2019-02-21T14:59:59.832Z,19.57
2019-02-21T15:02:37.732Z,20.13
2019-02-21T15:05:52.483Z,21.97
2019-02-21T15:08:27.359Z,21.07
2019-02-21T15:11:00.069Z,22.87
2019-02-21T15:13:42.652Z,21.63
2019-02-21T15:16:16.996Z,21.70
2019-02-21T15:18:55.356Z,19.13
2019-02-21T15:21:33.995Z,21.30
2019-02-21T15:24:07.634Z,19.77
2019-02-21T15:26:41.799Z,19.37
2019-02-21T15:29:15.570Z,21.53
2019-02-21T15:31:50.387Z,22.33
2019-02-21T15:34:27.179Z,19.33
2019-02-21T15:36:59.768Z,20.97
2019-02-21T15:39:35.297Z,24.70
2019-02-21T15:42:10.498Z,24.07
2019-02-21T15:44:45.265Z,21.33
2019-02-21T15:47:19.592Z,21.43
2019-02-21T15:49:52.458Z,25.33
2019-02-21T15:52:28.012Z,23.97
2019-02-21T15:55:11.869Z,20.70
2019-02-21T15:57:47.319Z,25.63
2019-02-21T16:00:21.832Z,26.17
2019-02-21T16:02:57.346Z,23.20
2019-02-21T16:05:31.687Z,26.90
2019-02-21T16:08:06.345Z,23.60
2019-02-21T16:10:46.318Z,23.37
2019-02-21T16:13:22.662Z,22.50
2019-02-21T16:15:58.609Z,22.47
2019-02-21T16:18:32.553Z,22.27
2019-02-21T16:21:09.108Z,26.43
2019-02-21T16:23:48.655Z,24.48
2019-02-21T16:26:24.661Z,23.40
2019-02-21T16:28:58.845Z,24.43
2019-02-21T16:31:31.727Z,24.33
2019-02-21T16:34:09.172Z,30.67
2019-02-21T16:36:43.640Z,25.97
2019-02-21T16:39:18.483Z,25.50
2019-02-21T16:41:52.972Z,30.03
2019-02-21T16:44:30.422Z,25.73
2019-02-21T16:47:05.766Z,28.27
2019-02-21T16:49:44.005Z,27.40
2019-02-21T16:52:18.278Z,26.17
2019-02-21T16:54:51.575Z,25.67
2019-02-21T16:57:25.556Z,35.23
2019-02-21T16:59:58.844Z,28.07
2019-02-21T17:02:34.359Z,27.73
2019-02-21T17:05:08.785Z,27.65
2019-02-21T17:07:44.697Z,28.77
2019-02-21T17:10:21.088Z,30.47
2019-02-21T17:12:55.485Z,28.35
2019-02-21T17:15:29.363Z,24.10
2019-02-21T17:18:03.731Z,25.02
2019-02-21T17:20:39.835Z,27.97
2019-02-21T17:23:22.529Z,25.30
2019-02-21T17:26:00.688Z,25.03
2019-02-21T17:28:41.510Z,25.37
2019-02-21T17:31:17.457Z,25.77
2019-02-21T17:33:53.399Z,24.43
2019-02-21T17:36:32.630Z,27.67
2019-02-21T17:39:10.559Z,27.07
2019-02-21T17:41:53.964Z,30.00
2019-02-21T17:44:31.748Z,25.13
2019-02-21T17:47:06.479Z,28.97
2019-02-21T17:49:44.641Z,26.40
2019-02-21T17:52:21.244Z,23.37
2019-02-21T17:54:55.563Z,28.85
2019-02-21T17:57:30.849Z,33.43
2019-02-21T18:00:17.116Z,25.87
2019-02-21T18:02:50.099Z,31.73
2019-02-21T18:05:22.845Z,26.53
2019-02-21T18:07:57.167Z,28.87
2019-02-21T18:10:30.393Z,26.75
2019-02-21T18:13:10.831Z,24.60
2019-02-21T18:15:47.270Z,28.00
2019-02-21T18:18:19.869Z,28.10
2019-02-21T18:20:57.070Z,25.63
2019-02-21T18:23:29.762Z,26.60
2019-02-21T18:26:17.100Z,27.77
2019-02-21T18:28:52.400Z,29.17
2019-02-21T18:31:26.610Z,31.67
2019-02-21T18:34:02.195Z,28.87
2019-02-21T18:36:42.071Z,32.23
2019-02-21T18:39:17.906Z,31.87
2019-02-21T18:41:51.999Z,35.10
2019-02-21T18:44:25.167Z,31.07
2019-02-21T18:47:00.527Z,32.63
2019-02-21T18:49:38.769Z,33.77
2019-02-21T18:52:19.657Z,36.27
2019-02-21T18:54:56.545Z,35.72
2019-02-21T18:57:29.958Z,33.43
2019-02-21T19:00:04.776Z,37.53
2019-02-21T19:02:37.457Z,37.53
2019-02-21T19:05:10.271Z,37.30
2019-02-21T19:07:43.019Z,38.87
2019-02-21T19:10:18.813Z,41.43
2019-02-21T19:12:53.793Z,40.77
2019-02-21T19:15:32.865Z,41.67
2019-02-21T19:18:11.046Z,44.57
2019-02-21T19:20:44.641Z,40.17
2019-02-21T19:23:20.168Z,45.93
2019-02-21T19:25:55.445Z,42.63
2019-02-21T19:28:29.408Z,42.77
2019-02-21T19:31:13.085Z,43.60
2019-02-21T19:33:49.157Z,40.70
2019-02-21T19:36:22.859Z,41.40
2019-02-21T19:38:57.934Z,43.27
2019-02-21T19:41:31.479Z,45.87
2019-02-21T19:44:09.179Z,39.40
2019-02-21T19:46:44.196Z,42.10
2019-02-21T19:49:20.174Z,44.07
2019-02-21T19:51:54.267Z,43.00
2019-02-21T19:54:26.975Z,39.97
2019-02-21T19:57:10.278Z,52.30
2019-02-21T19:59:53.905Z,42.53
2019-02-21T20:02:30.097Z,51.50
2019-02-21T20:05:06.636Z,47.00
2019-02-21T20:07:40.890Z,66.13
2019-02-21T20:10:19.030Z,53.57
2019-02-21T20:12:58.361Z,50.73
2019-02-21T20:15:34.912Z,46.77
2019-02-21T20:18:12.027Z,46.27
2019-02-21T20:20:46.809Z,47.57
2019-02-21T20:23:32.386Z,46.80
2019-02-21T20:26:17.712Z,46.57
2019-02-21T20:28:55.067Z,48.30
2019-02-21T20:31:29.814Z,46.63
2019-02-21T20:34:04.857Z,47.47
2019-02-21T20:36:50.468Z,43.37
2019-02-21T20:39:26.577Z,49.33
2019-02-21T20:42:01.164Z,45.77
2019-02-21T20:44:36.211Z,45.13
2019-02-21T20:47:10.791Z,59.38
2019-02-21T20:49:46.388Z,46.20
2019-02-21T20:52:21.341Z,44.23
2019-02-21T20:54:59.470Z,41.47
2019-02-21T20:57:35.832Z,40.20
2019-02-21T21:00:20.358Z,39.53
2019-02-21T21:02:54.559Z,40.43
2019-02-21T21:05:28.726Z,43.00
2019-02-21T21:08:08.619Z,44.90
2019-02-21T21:10:43.027Z,42.38
2019-02-21T21:13:17.776Z,43.27
2019-02-21T21:15:53.559Z,42.47
2019-02-21T21:18:28.361Z,46.87
2019-02-21T21:21:04.674Z,48.33
2019-02-21T21:23:37.328Z,45.20
2019-02-21T21:26:12.863Z,49.23
2019-02-21T21:28:46.983Z,60.13
2019-02-21T21:31:25.204Z,53.23
2019-02-21T21:34:02.760Z,58.53
2019-02-21T21:36:36.038Z,63.00
2019-02-21T21:39:12.677Z,62.27
2019-02-21T21:41:48.720Z,67.60
2019-02-21T21:44:23.133Z,70.17
2019-02-21T21:47:02.612Z,69.20
2019-02-21T21:49:39.821Z,74.53
2019-02-21T21:52:13.058Z,74.27
2019-02-21T21:54:51.053Z,80.53
2019-02-21T21:57:29.008Z,82.50
2019-02-21T22:00:06.794Z,102.97
2019-02-21T22:02:41.675Z,94.83
2019-02-21T22:05:14.362Z,111.60
2019-02-21T22:07:49.171Z,113.73
2019-02-21T22:10:22.943Z,110.37
2019-02-21T22:13:03.588Z,116.00
2019-02-21T22:15:37.831Z,118.67
2019-02-21T22:18:13.485Z,112.50
2019-02-21T22:20:46.169Z,114.57
2019-02-21T22:23:20.739Z,120.80
2019-02-21T22:25:59.158Z,105.53
2019-02-21T22:28:33.451Z,103.80
2019-02-21T22:31:17.730Z,102.10
2019-02-21T22:33:50.596Z,115.97
2019-02-21T22:36:27.210Z,107.50
2019-02-21T22:39:02.170Z,112.50
2019-02-21T22:41:40.243Z,125.33
2019-02-21T22:44:14.418Z,114.68
2019-02-21T22:46:50.337Z,115.43
2019-02-21T22:49:25.589Z,95.07
2019-02-21T22:52:02.208Z,101.53
2019-02-21T22:54:37.805Z,96.83
2019-02-21T22:57:10.369Z,100.40
2019-02-21T22:59:46.263Z,114.53
2019-02-21T23:02:21.118Z,111.87
2019-02-21T23:05:31.209Z,98.50
2019-02-21T23:08:51.338Z,101.17
2019-02-21T23:11:24.423Z,109.40
2019-02-21T23:14:00.232Z,114.70
2019-02-21T23:16:32.775Z,124.30
2019-02-21T23:19:07.738Z,112.00
2019-02-21T23:21:42.637Z,118.57
2019-02-21T23:24:17.327Z,143.68
2019-02-21T23:26:52.405Z,126.07
2019-02-21T23:29:26.913Z,127.03
2019-02-21T23:31:59.782Z,123.87
2019-02-21T23:34:37.509Z,135.47
2019-02-21T23:37:11.218Z,123.03
2019-02-21T23:39:44.180Z,130.77
2019-02-21T23:42:18.465Z,124.70
2019-02-21T23:44:51.687Z,123.87
2019-02-21T23:47:24.244Z,141.97
2019-02-21T23:49:58.535Z,164.50
2019-02-21T23:52:31.722Z,168.50
2019-02-21T23:55:04.800Z,147.33
2019-02-21T23:57:38.859Z,192.83
